Time;durP1;ratioP1;P1;durP2;ratioP2;P2;SDS_P1;SDS_P2;PMS_P1;PMS_P2;Temp;Humidity;BMP_temperature;BMP_pressure;BME280_temperature;BME280_humidity;BME280_pressure;Samples;Min_cycle;Max_cycle;Signal;HPM_P1;HPM_P2
2022/08/30 00:01:01;;;;;;;0.90;0.50;;;18.20;99.90;;;;;;10441447;28;20363;-79
2022/08/30 00:05:00;;;;;;;1.55;0.47;;;18.20;99.90;;;;;;10478720;28;20223;-78
2022/08/30 00:10:22;;;;;;;0.38;0.22;;;18.20;99.90;;;;;;10492972;28;20227;-79
2022/08/30 00:15:44;;;;;;;1.13;0.45;;;18.30;99.90;;;;;;10441587;28;20196;-78
2022/08/30 00:21:07;;;;;;;0.63;0.40;;;18.20;99.90;;;;;;10440798;28;20192;-78
2022/08/30 00:26:29;;;;;;;0.90;0.43;;;18.20;99.90;;;;;;10440296;28;20255;-78
2022/08/30 00:31:50;;;;;;;0.50;0.40;;;18.20;99.90;;;;;;10440115;28;20220;-78
2022/08/30 00:37:12;;;;;;;0.60;0.38;;;18.20;99.90;;;;;;10441045;28;20483;-79
2022/08/30 00:42:33;;;;;;;1.80;0.52;;;18.10;99.90;;;;;;10425831;28;20239;-77
2022/08/30 00:47:55;;;;;;;0.95;0.50;;;18.10;99.90;;;;;;10440894;28;20198;-79
2022/08/30 00:53:25;;;;;;;2.50;0.40;;;18.10;99.90;;;;;;10440452;28;20193;-78
2022/08/30 00:58:51;;;;;;;1.30;0.50;;;18.00;99.90;;;;;;10440157;28;20193;-77
2022/08/30 01:04:13;;;;;;;0.90;0.50;;;17.90;99.90;;;;;;10488353;28;20291;-75
2022/08/30 01:09:36;;;;;;;1.00;0.60;;;;;;;;;;10518323;28;20191;-76
2022/08/30 01:14:58;;;;;;;0.65;0.50;;;17.90;99.90;;;;;;10439561;28;20199;-76
2022/08/30 01:20:28;;;;;;;0.95;0.52;;;17.80;99.90;;;;;;10439414;28;20199;-75
2022/08/30 01:25:51;;;;;;;0.65;0.50;;;17.80;99.90;;;;;;10438137;28;20244;-75
2022/08/30 01:31:13;;;;;;;3.35;1.00;;;17.70;99.90;;;;;;10439087;28;20196;-78
2022/08/30 01:36:37;;;;;;;1.45;0.57;;;17.70;99.90;;;;;;10437873;28;20197;-78
2022/08/30 01:42:00;;;;;;;3.22;1.45;;;17.70;99.90;;;;;;10438298;28;20216;-77
2022/08/30 01:47:22;;;;;;;2.58;0.80;;;;;;;;;;10437192;28;20208;-76
2022/08/30 01:52:44;;;;;;;2.42;0.63;;;17.40;99.90;;;;;;10436302;28;20278;-76
2022/08/30 01:58:06;;;;;;;1.27;0.63;;;17.40;99.90;;;;;;10437831;28;20552;-76
2022/08/30 02:03:31;;;;;;;1.92;0.65;;;;;;;;;;10473718;28;20253;-75
2022/08/30 02:08:53;;;;;;;1.65;0.60;;;;;;;;;;10520693;28;20195;-75
2022/08/30 02:14:14;;;;;;;1.70;0.80;;;17.40;99.90;;;;;;10439033;28;20226;-78
2022/08/30 02:19:37;;;;;;;2.20;0.73;;;17.40;99.90;;;;;;10437209;28;20200;-77
2022/08/30 02:24:58;;;;;;;1.67;0.82;;;17.30;99.90;;;;;;10435871;28;20254;-78
2022/08/30 02:30:19;;;;;;;1.05;0.60;;;17.30;99.90;;;;;;10435820;28;20426;-78
2022/08/30 02:35:41;;;;;;;3.75;0.88;;;17.30;99.90;;;;;;10436828;28;20223;-79
2022/08/30 02:41:03;;;;;;;1.35;0.60;;;17.40;99.90;;;;;;10436627;28;20269;-78
2022/08/30 02:46:25;;;;;;;3.00;0.70;;;17.40;99.90;;;;;;10436683;28;20224;-79
2022/08/30 02:51:47;;;;;;;3.70;1.33;;;17.40;99.90;;;;;;10436827;28;20193;-79
2022/08/30 02:57:08;;;;;;;4.88;0.82;;;17.30;99.90;;;;;;10436401;28;20238;-75
2022/08/30 03:02:30;;;;;;;3.10;1.02;;;17.30;99.90;;;;;;10456938;28;20236;-75
2022/08/30 03:07:51;;;;;;;1.20;0.73;;;17.20;99.90;;;;;;10444315;28;20206;-75
2022/08/30 03:13:13;;;;;;;4.95;1.15;;;17.20;99.90;;;;;;10444063;28;20201;-76
2022/08/30 03:18:34;;;;;;;3.75;1.38;;;17.10;99.90;;;;;;10444064;28;20382;-75
2022/08/30 03:23:56;;;;;;;3.78;1.40;;;17.10;99.90;;;;;;10443547;28;20299;-76
2022/08/30 03:29:17;;;;;;;5.60;1.45;;;17.20;99.90;;;;;;10442766;28;20209;-74
2022/08/30 03:34:38;;;;;;;2.50;1.17;;;17.20;99.90;;;;;;10443760;28;20222;-76
2022/08/30 03:40:01;;;;;;;3.78;1.35;;;;;;;;;;10443056;28;20198;-76
2022/08/30 03:45:23;;;;;;;1.90;0.90;;;;;;;;;;10442861;28;20226;-78
2022/08/30 03:50:44;;;;;;;3.40;1.25;;;17.00;99.90;;;;;;10441923;28;20196;-75
2022/08/30 03:56:06;;;;;;;4.20;1.08;;;;;;;;;;10427647;28;20224;-75
2022/08/30 04:14:33;;;;;;;3.50;1.50;;;;;;;;;;10441549;28;20265;-75
2022/08/30 04:19:54;;;;;;;2.38;1.30;;;;;;;;;;10441816;28;20200;-75
2022/08/30 04:25:16;;;;;;;2.58;1.08;;;;;;;;;;10442775;28;20584;-75
2022/08/30 04:30:39;;;;;;;3.83;1.27;;;;;;;;;;10455116;28;20198;-75
2022/08/30 04:36:03;;;;;;;2.10;1.00;;;;;;;;;;10467314;28;20198;-75
2022/08/30 04:41:25;;;;;;;4.68;1.05;;;;;;;;;;10481489;28;20516;-75
2022/08/30 04:46:46;;;;;;;3.20;1.35;;;;;;;;;;10481028;28;20216;-75
2022/08/30 04:52:09;;;;;;;2.15;1.10;;;;;;;;;;10481623;28;20488;-75
2022/08/30 04:57:31;;;;;;;2.70;1.02;;;;;;;;;;10466365;28;20439;-75
2022/08/30 05:02:52;;;;;;;4.88;1.30;;;;;;;;;;10482762;28;20440;-75
2022/08/30 05:08:16;;;;;;;5.03;1.58;;;;;;;;;;10522489;28;20397;-75
2022/08/30 05:13:38;;;;;;;3.63;1.17;;;;;;;;;;10472101;28;20495;-75
2022/08/30 05:19:00;;;;;;;3.42;1.27;;;;;;;;;;10480726;28;20269;-76
2022/08/30 05:24:22;;;;;;;2.83;1.20;;;;;;;;;;10479209;28;20273;-75
2022/08/30 05:29:44;;;;;;;3.47;1.52;;;;;;;;;;10474435;28;20222;-74
2022/08/30 05:35:06;;;;;;;3.78;1.40;;;;;;;;;;10437400;28;20199;-75
2022/08/30 05:40:28;;;;;;;3.45;1.45;;;;;;;;;;10438631;28;20193;-75
2022/08/30 05:45:57;;;;;;;3.60;1.38;;;;;;;;;;10438189;28;20288;-74
2022/08/30 05:51:20;;;;;;;2.45;1.20;;;;;;;;;;10438049;28;20195;-74
2022/08/30 05:56:44;;;;;;;3.42;1.55;;;;;;;;;;10437881;28;20450;-76
2022/08/30 06:02:06;;;;;;;2.10;0.90;;;;;;;;;;10454690;28;20358;-76
2022/08/30 06:07:28;;;;;;;3.20;1.00;;;;;;;;;;10517564;28;20194;-75
2022/08/30 06:12:49;;;;;;;2.08;1.00;;;;;;;;;;10462657;28;20223;-79
2022/08/30 06:18:12;;;;;;;3.08;1.23;;;;;;;;;;10437107;28;20188;-76
2022/08/30 06:23:34;;;;;;;1.77;0.70;;;;;;;;;;10422191;28;20254;-76
2022/08/30 06:28:56;;;;;;;3.78;1.20;;;;;;;;;;10437146;28;20195;-76
2022/08/30 06:34:17;;;;;;;3.65;1.02;;;20.00;99.90;;;;;;10421462;28;20200;-76
2022/08/30 06:39:38;;;;;;;3.53;1.23;;;20.40;99.90;;;;;;10436367;28;20188;-77
2022/08/30 06:45:01;;;;;;;1.77;0.82;;;20.50;99.90;;;;;;10436502;28;20224;-79
2022/08/30 06:50:24;;;;;;;1.80;1.10;;;20.90;96.00;;;;;;10436450;28;20188;-78
2022/08/30 06:55:55;;;;;;;2.42;0.90;;;20.80;95.30;;;;;;10435041;28;20231;-77
2022/08/30 07:01:20;;;;;;;4.15;1.08;;;20.70;93.20;;;;;;10446210;28;20199;-76
2022/08/30 07:06:41;;;;;;;1.98;0.98;;;20.30;92.10;;;;;;10495636;28;20222;-76
2022/08/30 07:12:03;;;;;;;0.88;0.70;;;20.30;92.70;;;;;;10474331;28;20197;-77
2022/08/30 07:23:04;;;;;;;1.42;0.80;;;21.00;84.30;;;;;;10435528;28;20263;-77
2022/08/30 07:28:26;;;;;;;2.00;0.98;;;20.90;82.70;;;;;;10420690;28;20272;-78
2022/08/30 07:33:47;;;;;;;5.00;1.20;;;20.90;81.80;;;;;;10435301;28;20243;-77
2022/08/30 07:39:08;;;;;;;9.00;1.02;;;20.80;83.60;;;;;;10435569;28;20263;-77
2022/08/30 07:44:31;;;;;;;1.27;1.00;;;20.80;81.70;;;;;;10434000;28;20526;-77
2022/08/30 07:49:52;;;;;;;3.15;1.08;;;21.00;82.70;;;;;;10420367;28;20201;-78
2022/08/30 07:55:14;;;;;;;3.83;0.90;;;21.30;80.50;;;;;;10427482;28;20390;-78
2022/08/30 08:00:35;;;;;;;2.38;0.82;;;21.80;77.30;;;;;;10447013;28;20196;-74
2022/08/30 08:05:56;;;;;;;0.85;0.70;;;22.00;72.40;;;;;;10495625;28;20222;-75
2022/08/30 08:11:20;;;;;;;1.52;0.90;;;;;;;;;;10492860;28;20458;-76
2022/08/30 08:16:43;;;;;;;3.10;0.95;;;23.80;56.60;;;;;;10441111;28;20193;-76
2022/08/30 08:22:05;;;;;;;3.38;1.00;;;;;;;;;;10441263;28;20227;-77
2022/08/30 08:27:40;;;;;;;2.22;0.80;;;26.00;35.00;;;;;;10440557;28;20196;-75
2022/08/30 08:33:02;;;;;;;1.45;0.80;;;26.80;27.10;;;;;;10441209;28;20192;-75
2022/08/30 08:38:24;;;;;;;1.63;0.98;;;26.90;26.40;;;;;;10439932;28;20268;-75
2022/08/30 08:43:45;;;;;;;2.17;1.00;;;27.10;25.80;;;;;;10439126;28;20444;-75
2022/08/30 08:49:07;;;;;;;3.70;1.05;;;25.50;26.50;;;;;;10440356;28;20190;-76
2022/08/30 08:54:31;;;;;;;1.70;0.70;;;25.20;28.40;;;;;;10439267;28;20247;-75
2022/08/30 08:59:53;;;;;;;1.40;0.93;;;25.80;27.00;;;;;;10439893;28;20546;-76
2022/08/30 09:05:20;;;;;;;1.85;0.70;;;25.60;26.70;;;;;;10502008;28;20286;-76
2022/08/30 09:10:59;;;;;;;1.48;1.00;;;25.30;27.70;;;;;;10499920;28;20275;-76
2022/08/30 09:16:55;;;;;;;2.10;1.05;;;24.60;28.60;;;;;;10439323;28;20263;-76
2022/08/30 09:22:35;;;;;;;1.27;0.90;;;24.00;32.20;;;;;;10439173;28;20228;-77
2022/08/30 09:28:14;;;;;;;5.22;1.30;;;23.90;32.70;;;;;;10439107;28;20205;-77
2022/08/30 09:33:37;;;;;;;0.77;0.70;;;24.10;33.40;;;;;;10437893;28;20197;-77
2022/08/30 09:39:05;;;;;;;3.90;0.73;;;24.30;34.50;;;;;;10423574;28;20200;-76
2022/08/30 09:44:30;;;;;;;2.95;1.00;;;24.00;35.10;;;;;;10437056;28;20234;-76
2022/08/30 09:50:04;;;;;;;1.50;1.00;;;23.90;36.90;;;;;;10436918;28;20200;-77
2022/08/30 09:55:31;;;;;;;1.60;0.80;;;23.70;39.70;;;;;;10408946;28;20204;-76
2022/08/30 10:01:08;;;;;;;1.95;0.95;;;23.50;41.40;;;;;;10444835;28;20456;-76
2022/08/30 10:06:45;;;;;;;3.72;1.23;;;23.20;43.80;;;;;;10495062;28;20540;-74
2022/08/30 10:12:22;;;;;;;1.30;0.80;;;23.10;44.40;;;;;;10474474;28;20395;-76
2022/08/30 10:17:58;;;;;;;1.67;0.95;;;22.90;47.50;;;;;;10436229;28;20188;-76
2022/08/30 10:23:31;;;;;;;8.88;1.48;;;22.60;53.50;;;;;;10407791;28;20276;-76
2022/08/30 10:29:24;;;;;;;2.63;1.38;;;22.50;57.70;;;;;;10435677;28;20205;-76
2022/08/30 10:35:02;;;;;;;4.38;1.23;;;22.40;61.40;;;;;;10436730;28;20242;-77
2022/08/30 10:46:32;;;;;;;7.88;3.67;;;21.90;78.30;;;;;;10436459;28;20230;-76
2022/08/30 10:52:16;;;;;;;1.73;0.88;;;21.80;87.40;;;;;;10434914;28;20189;-76
2022/08/30 10:57:38;;;;;;;2.38;0.90;;;;;;;;;;10421110;28;20239;-79
2022/08/30 11:03:12;;;;;;;3.70;1.13;;;;;;;;;;10450505;28;20280;-78
2022/08/30 11:08:54;;;;;;;2.70;0.93;;;;;;;;;;10503388;28;20199;-76
2022/08/30 11:14:17;;;;;;;3.53;0.70;;;;;;;;;;10437642;28;20287;-78
2022/08/30 11:19:40;;;;;;;2.42;0.90;;;21.30;97.90;;;;;;10436131;28;20192;-78
2022/08/30 11:25:13;;;;;;;2.55;0.95;;;21.30;98.30;;;;;;10437488;28;20237;-77
2022/08/30 11:30:37;;;;;;;1.48;0.70;;;21.10;96.70;;;;;;10443632;28;20536;-76
2022/08/30 11:35:58;;;;;;;1.70;0.77;;;21.10;96.40;;;;;;10428028;28;20219;-76
2022/08/30 11:41:35;;;;;;;0.98;0.60;;;20.80;97.20;;;;;;10443156;28;20192;-77
2022/08/30 11:47:20;;;;;;;3.58;1.02;;;21.00;96.80;;;;;;10442870;28;20224;-76
2022/08/30 11:53:06;;;;;;;2.38;1.25;;;21.20;96.40;;;;;;10441553;28;20192;-77
2022/08/30 11:59:06;;;;;;;1.42;0.80;;;21.30;96.00;;;;;;10442290;28;20196;-75
2022/08/30 12:04:45;;;;;;;1.20;0.68;;;21.20;96.10;;;;;;10465891;28;20358;-75
2022/08/30 12:10:22;;;;;;;1.60;0.90;;;21.20;97.70;;;;;;10511130;28;20204;-76
2022/08/30 12:15:54;;;;;;;2.22;0.70;;;21.10;98.50;;;;;;10426374;28;20245;-77
2022/08/30 12:21:19;;;;;;;0.98;0.75;;;20.90;96.90;;;;;;10440141;28;20200;-78
2022/08/30 12:26:46;;;;;;;0.70;0.57;;;20.70;97.50;;;;;;10439720;28;20572;-75
2022/08/30 12:32:19;;;;;;;1.10;0.70;;;20.50;98.20;;;;;;10440240;28;20197;-78
2022/08/30 12:37:42;;;;;;;1.63;0.60;;;;;;;;;;10411401;28;20491;-78
2022/08/30 12:43:16;;;;;;;1.20;0.80;;;20.10;99.90;;;;;;10425466;28;20196;-77
2022/08/30 12:48:39;;;;;;;1.27;0.80;;;;;;;;;;10439765;28;20197;-76
2022/08/30 12:54:23;;;;;;;1.55;0.80;;;19.10;99.90;;;;;;10425506;28;20271;-76
2022/08/30 12:59:46;;;;;;;1.20;1.00;;;19.10;99.90;;;;;;10439028;28;20203;-76
2022/08/30 13:05:41;;;;;;;2.55;0.98;;;18.90;99.90;;;;;;10480063;28;20226;-75
2022/08/30 13:11:24;;;;;;;1.73;1.08;;;18.90;99.90;;;;;;10493965;28;20254;-75
2022/08/30 13:16:45;;;;;;;4.35;1.20;;;19.00;99.90;;;;;;10438537;28;20199;-75
2022/08/30 13:22:25;;;;;;;2.05;1.10;;;19.30;99.90;;;;;;10439158;28;20408;-78
2022/08/30 13:27:46;;;;;;;2.17;1.23;;;19.50;99.90;;;;;;10438378;28;20220;-76
2022/08/30 13:33:10;;;;;;;1.77;1.13;;;19.60;99.90;;;;;;10438651;28;20189;-79
2022/08/30 13:38:31;;;;;;;2.22;1.15;;;19.70;99.90;;;;;;10438771;28;20197;-78
2022/08/30 13:43:52;;;;;;;1.67;1.10;;;19.70;99.90;;;;;;10423449;28;20228;-78
2022/08/30 13:49:34;;;;;;;2.17;1.25;;;19.80;99.90;;;;;;10436071;28;20227;-75
2022/08/30 13:55:04;;;;;;;2.63;1.17;;;19.80;99.90;;;;;;10438146;28;20196;-76
2022/08/30 14:00:26;;;;;;;2.92;1.55;;;19.90;99.90;;;;;;10441908;28;20219;-77
2022/08/30 14:05:47;;;;;;;3.25;1.27;;;20.00;99.90;;;;;;10504445;28;20229;-76
2022/08/30 14:11:11;;;;;;;1.67;1.00;;;20.00;99.90;;;;;;10475337;28;20200;-78
2022/08/30 14:16:34;;;;;;;1.55;1.10;;;20.10;99.90;;;;;;10422248;28;20208;-76
2022/08/30 14:21:55;;;;;;;3.08;1.27;;;20.20;99.90;;;;;;10436091;28;20268;-79
2022/08/30 14:27:16;;;;;;;2.45;1.35;;;20.20;99.90;;;;;;10436039;28;20231;-76
2022/08/30 14:32:38;;;;;;;1.77;1.20;;;20.30;99.90;;;;;;10436616;28;20188;-79
2022/08/30 14:37:59;;;;;;;40.13;31.35;;;20.30;99.90;;;;;;10435682;28;20231;-79
2022/08/30 14:43:20;;;;;;;10.55;8.77;;;20.20;99.90;;;;;;10421577;28;20247;-77
2022/08/30 14:48:41;;;;;;;2.00;1.50;;;20.30;99.90;;;;;;10421829;28;20223;-79
2022/08/30 14:54:03;;;;;;;2.85;1.25;;;20.30;99.90;;;;;;10407877;28;20195;-76
2022/08/30 14:59:26;;;;;;;2.20;1.15;;;20.30;99.90;;;;;;10436270;28;20371;-78
2022/08/30 15:04:47;;;;;;;2.75;1.10;;;20.30;99.90;;;;;;10501560;28;20518;-78
2022/08/30 15:10:09;;;;;;;1.38;1.08;;;20.10;99.90;;;;;;10499579;28;20275;-78
2022/08/30 15:15:31;;;;;;;3.67;1.83;;;20.10;99.90;;;;;;10442947;28;20220;-78
2022/08/30 15:20:52;;;;;;;3.85;1.58;;;20.00;99.90;;;;;;10444227;28;20553;-79
2022/08/30 15:26:14;;;;;;;2.00;1.25;;;20.00;99.90;;;;;;10443599;28;20224;-79
2022/08/30 15:31:35;;;;;;;2.22;1.80;;;20.00;99.90;;;;;;10442550;28;20374;-78
2022/08/30 15:36:57;;;;;;;1.33;1.15;;;20.00;99.90;;;;;;10443598;28;20188;-78
2022/08/30 15:42:19;;;;;;;2.95;1.25;;;20.00;99.90;;;;;;10442378;28;20193;-78
2022/08/30 15:47:40;;;;;;;1.95;1.52;;;20.00;99.90;;;;;;10442008;28;20243;-79
2022/08/30 15:53:02;;;;;;;2.22;1.58;;;20.00;99.90;;;;;;10443022;28;20193;-76
2022/08/30 15:58:26;;;;;;;3.53;1.58;;;20.10;99.90;;;;;;10436615;28;20232;-83
2022/08/30 16:03:47;;;;;;;1.90;0.95;;;19.90;99.90;;;;;;10466394;28;20211;-76
2022/08/30 16:09:09;;;;;;;3.17;1.15;;;19.70;99.90;;;;;;10491339;28;20226;-79
2022/08/30 16:14:31;;;;;;;1.60;1.20;;;19.50;99.90;;;;;;10458138;28;20241;-79
2022/08/30 16:19:53;;;;;;;3.38;1.17;;;19.40;99.90;;;;;;10467050;28;20395;-80
2022/08/30 16:25:17;;;;;;;1.17;0.85;;;19.30;99.90;;;;;;10478042;28;20657;-80
2022/08/30 16:30:38;;;;;;;4.05;2.40;;;19.40;99.90;;;;;;10444000;28;20235;-80
2022/08/30 16:36:00;;;;;;;2.65;1.55;;;19.50;99.90;;;;;;10474855;28;20196;-80
2022/08/30 16:41:22;;;;;;;5.28;2.25;;;19.30;99.90;;;;;;10481198;28;20222;-79
2022/08/30 16:46:43;;;;;;;3.83;1.70;;;19.30;99.90;;;;;;10478951;28;20293;-78
2022/08/30 16:52:05;;;;;;;3.00;1.30;;;19.20;99.90;;;;;;10479607;28;20184;-79
2022/08/30 16:57:27;;;;;;;4.90;1.75;;;19.10;99.90;;;;;;10479848;28;20196;-78
2022/08/30 17:02:52;;;;;;;1.45;1.20;;;18.90;99.90;;;;;;10456544;28;20220;-79
2022/08/30 17:08:14;;;;;;;2.55;1.08;;;18.80;99.90;;;;;;10521158;28;20218;-78
2022/08/30 17:13:36;;;;;;;2.58;1.48;;;18.80;99.90;;;;;;10467566;28;20195;-78
2022/08/30 17:18:59;;;;;;;1.92;1.17;;;18.70;1.00;;;;;;10447909;28;20192;-77
2022/08/30 17:24:20;;;;;;;2.88;1.80;;;18.70;1.00;;;;;;10464474;28;20224;-77
2022/08/30 17:29:41;;;;;;;1.92;1.40;;;18.60;1.00;;;;;;10435762;28;20200;-76
2022/08/30 17:35:04;;;;;;;3.35;1.73;;;18.70;61.40;;;;;;10451875;28;20196;-77
2022/08/30 17:40:27;;;;;;;1.63;1.50;;;;;;;;;;10409952;28;20507;-76
2022/08/30 17:45:48;;;;;;;2.85;2.15;;;18.30;99.90;;;;;;10438489;28;20227;-76
2022/08/30 17:51:10;;;;;;;3.53;2.20;;;18.30;1.00;;;;;;10437579;28;20193;-76
2022/08/30 17:56:31;;;;;;;5.15;2.80;;;;;;;;;;10437913;28;20192;-76
2022/08/30 18:01:54;;;;;;;5.05;2.80;;;18.00;99.90;;;;;;10450407;28;20226;-75
2022/08/30 18:07:15;;;;;;;8.02;3.45;;;17.90;99.90;;;;;;10516485;28;20222;-75
2022/08/30 18:12:37;;;;;;;7.25;3.90;;;;;;;;;;10488612;28;20200;-78
2022/08/30 18:17:59;;;;;;;9.88;5.32;;;17.70;21.30;;;;;;10477783;28;20207;-77
2022/08/30 18:23:20;;;;;;;12.10;6.53;;;;;;;;;;10478263;28;20244;-77
2022/08/30 18:28:43;;;;;;;10.65;4.13;;;;;;;;;;10478561;28;20421;-77
2022/08/30 18:34:05;;;;;;;5.80;3.40;;;;;;;;;;10476866;28;20200;-77
2022/08/30 18:39:27;;;;;;;4.65;2.85;;;;;;;;;;10476674;28;20378;-77
2022/08/30 18:44:49;;;;;;;3.58;2.35;;;;;;;;;;10478096;28;20463;-78
2022/08/30 18:50:11;;;;;;;2.28;1.80;;;;;;;;;;10477985;28;20197;-76
2022/08/30 18:55:33;;;;;;;4.30;2.58;;;;;;;;;;10477898;28;20196;-75
2022/08/30 19:00:54;;;;;;;5.03;2.47;;;;;;;;;;10477840;28;20195;-77
2022/08/30 19:06:17;;;;;;;5.07;2.28;;;;;;;;;;10506296;28;20217;-78
2022/08/30 19:11:39;;;;;;;3.83;1.98;;;;;;;;;;10495094;28;20368;-80
2022/08/30 19:17:00;;;;;;;5.43;2.78;;;;;;;;;;10462225;28;20203;-80
2022/08/30 19:22:24;;;;;;;6.80;2.47;;;;;;;;;;10476999;28;20246;-77
2022/08/30 19:27:47;;;;;;;4.55;2.08;;;;;;;;;;10476017;28;20299;-79
2022/08/30 19:33:08;;;;;;;2.30;1.55;;;;;;;;;;10476154;28;20203;-77
2022/08/30 19:38:30;;;;;;;2.88;1.80;;;;;;;;;;10475725;28;20205;-79
2022/08/30 19:43:52;;;;;;;4.82;1.98;;;;;;;;;;10475942;28;20218;-78
2022/08/30 20:09:13;;;;;;;3.30;1.77;;;;;;;;;;10442473;28;20196;-76
2022/08/30 20:19:55;;;;;;;4.75;1.88;;;;;;;;;;10482390;28;20432;-78
2022/08/30 20:25:16;;;;;;;2.40;1.40;;;;;;;;;;10482669;28;20309;-78
2022/08/30 20:30:39;;;;;;;3.17;1.85;;;;;;;;;;10481805;28;20203;-77
2022/08/30 20:36:02;;;;;;;2.33;1.40;;;;;;;;;;10482555;28;20202;-75
2022/08/30 20:41:23;;;;;;;3.47;1.83;;;;;;;;;;10482390;28;20193;-78
2022/08/30 20:46:48;;;;;;;6.95;2.20;;;;;;;;;;10481021;28;20530;-76
2022/08/30 20:52:16;;;;;;;3.13;1.40;;;;;;;;;;10467756;28;20198;-75
2022/08/30 20:57:38;;;;;;;2.20;1.60;;;;;;;;;;10481454;28;20517;-77
2022/08/30 21:02:59;;;;;;;2.17;1.33;;;;;;;;;;10464816;28;20198;-75
2022/08/30 21:08:21;;;;;;;2.53;1.50;;;;;;;;;;10521562;28;20297;-77
2022/08/30 21:14:09;;;;;;;3.70;1.60;;;;;;;;;;10478599;28;20207;-76
2022/08/30 21:19:31;;;;;;;4.40;1.70;;;;;;;;;;10480976;28;20225;-76
2022/08/30 21:24:52;;;;;;;2.70;1.50;;;;;;;;;;10480322;28;20249;-76
2022/08/30 21:30:15;;;;;;;1.63;1.38;;;;;;;;;;10480560;28;20221;-76
2022/08/30 21:41:16;;;;;;;1.88;1.25;;;15.80;1.00;;;;;;10480089;28;20432;-77
2022/08/30 21:46:39;;;;;;;1.48;1.10;;;15.70;1.00;;;;;;10479818;28;20227;-75
2022/08/30 21:52:39;;;;;;;2.72;1.38;;;15.70;1.00;;;;;;10478865;28;20217;-75
2022/08/30 21:58:00;;;;;;;3.38;1.42;;;15.80;1.00;;;;;;10478385;28;20206;-77
2022/08/30 22:03:22;;;;;;;2.63;1.60;;;15.70;99.90;;;;;;10464677;28;20277;-77
2022/08/30 22:08:46;;;;;;;2.53;1.40;;;15.60;99.90;;;;;;10518614;28;20237;-78
2022/08/30 22:14:08;;;;;;;2.45;1.20;;;15.60;99.90;;;;;;10477011;28;20208;-77
2022/08/30 22:19:29;;;;;;;1.88;1.30;;;15.50;99.90;;;;;;10477956;28;20211;-77
2022/08/30 22:24:51;;;;;;;3.33;1.95;;;15.50;99.90;;;;;;10477202;28;20575;-77
2022/08/30 22:30:14;;;;;;;3.78;1.60;;;15.50;99.90;;;;;;10478418;28;20201;-78
2022/08/30 22:35:36;;;;;;;3.42;1.50;;;15.40;99.90;;;;;;10478499;28;20190;-77
2022/08/30 22:40:57;;;;;;;2.50;1.15;;;15.40;99.90;;;;;;10478096;28;20195;-76
2022/08/30 22:46:20;;;;;;;3.63;1.50;;;15.30;99.90;;;;;;10478103;28;20238;-77
2022/08/30 22:51:42;;;;;;;1.73;1.20;;;15.30;99.90;;;;;;10477079;28;20206;-74
2022/08/30 22:57:14;;;;;;;2.90;1.50;;;15.30;99.90;;;;;;10477968;28;20392;-75
2022/08/30 23:02:54;;;;;;;5.10;1.20;;;15.30;99.90;;;;;;10460256;28;20506;-76
2022/08/30 23:08:16;;;;;;;2.83;1.50;;;15.20;99.90;;;;;;10518034;28;20233;-77
2022/08/30 23:14:04;;;;;;;2.15;1.30;;;15.30;99.90;;;;;;10438081;28;20202;-78
2022/08/30 23:19:26;;;;;;;7.30;1.38;;;15.30;99.90;;;;;;10435185;28;20493;-78
